createdAt,value
2019-03-09T00:01:42.812Z,100536.92
2019-03-09T00:02:47.278Z,100538.66
2019-03-09T00:09:09.743Z,100513.48
2019-03-09T00:10:15.537Z,100512.64
2019-03-09T00:13:27.138Z,100505.25
2019-03-09T00:16:38.863Z,100493.49
2019-03-09T00:17:44.393Z,100499.17
2019-03-09T00:18:48.773Z,100498.30
2019-03-09T00:20:58.307Z,100489.16
2019-03-09T00:23:06.307Z,100487.83
2019-03-09T00:26:18.557Z,100491.76
2019-03-09T00:27:29.814Z,100489.58
2019-03-09T00:28:29.626Z,100483.05
2019-03-09T00:29:34.275Z,100482.18
2019-03-09T00:30:38.911Z,100474.34
2019-03-09T00:31:43.561Z,100472.59
2019-03-09T00:32:47.990Z,100464.75
2019-03-09T00:33:52.698Z,100468.24
2019-03-09T00:37:04.597Z,100459.12
2019-03-09T00:38:09.318Z,100453.45
2019-03-09T00:39:14.034Z,100448.66
2019-03-09T00:40:18.671Z,100453.45
2019-03-09T00:42:26.900Z,100451.70
2019-03-09T00:43:31.635Z,100448.66
2019-03-09T00:44:36.488Z,100451.70
2019-03-09T00:47:48.393Z,100439.09
2019-03-09T00:51:00.801Z,100442.16
2019-03-09T00:53:09.100Z,100441.28
2019-03-09T00:56:20.793Z,100435.17
2019-03-09T00:57:25.199Z,100440.82
2019-03-09T00:58:29.616Z,100436.46
2019-03-09T00:59:33.995Z,100430.39
2019-03-09T01:00:38.395Z,100429.09
2019-03-09T01:01:42.787Z,100428.22
2019-03-09T01:02:47.193Z,100430.39
2019-03-09T01:04:57.145Z,100422.96
2019-03-09T01:06:01.603Z,100417.76
2019-03-09T01:10:17.192Z,100423.94
2019-03-09T01:13:28.889Z,100420.80
2019-03-09T01:14:33.287Z,100430.41
2019-03-09T01:15:38.739Z,100432.58
2019-03-09T01:22:01.295Z,100417.86
2019-03-09T01:23:05.705Z,100425.62
2019-03-09T01:25:14.015Z,100416.45
2019-03-09T01:26:18.429Z,100416.87
2019-03-09T01:27:22.840Z,100409.48
2019-03-09T01:28:27.255Z,100408.19
2019-03-09T01:31:38.845Z,100415.14
2019-03-09T01:34:51.339Z,100405.16
2019-03-09T01:39:07.755Z,100404.69
2019-03-09T01:46:36.329Z,100395.52
2019-03-09T01:48:44.318Z,100398.16
2019-03-09T01:49:48.771Z,100408.62
2019-03-09T01:51:56.762Z,100414.70
2019-03-09T01:53:01.172Z,100401.64
2019-03-09T01:54:05.655Z,100399.87
2019-03-09T01:55:12.056Z,100398.50
2019-03-09T01:56:16.459Z,100391.98
2019-03-09T02:00:31.749Z,100385.08
2019-03-09T02:01:37.065Z,100389.87
2019-03-09T02:04:52.759Z,100391.16
2019-03-09T02:07:02.603Z,100395.45
2019-03-09T02:09:10.627Z,100381.97
2019-03-09T02:12:23.699Z,100386.30
2019-03-09T02:13:28.161Z,100388.48
2019-03-09T02:14:32.793Z,100392.38
2019-03-09T02:17:44.556Z,100386.75
2019-03-09T02:26:15.219Z,100393.25
2019-03-09T02:27:19.614Z,100390.20
2019-03-09T02:28:24.011Z,100384.53
2019-03-09T02:31:37.096Z,100378.84
2019-03-09T02:34:48.865Z,100381.45
2019-03-09T02:35:53.264Z,100377.54
2019-03-09T02:36:57.683Z,100381.03
2019-03-09T02:41:16.546Z,100380.54
2019-03-09T02:42:20.933Z,100371.02
2019-03-09T02:46:36.142Z,100384.07
2019-03-09T02:49:47.826Z,100370.64
2019-03-09T02:50:52.232Z,100377.16
2019-03-09T02:53:00.237Z,100380.22
2019-03-09T02:54:04.654Z,100389.87
2019-03-09T02:56:14.385Z,100392.93
2019-03-09T02:58:23.529Z,100393.81
2019-03-09T03:03:42.354Z,100421.70
2019-03-09T03:04:46.811Z,100422.14
2019-03-09T03:09:02.297Z,100436.94
2019-03-09T03:11:12.537Z,100440.03
2019-03-09T03:12:17.771Z,100443.10
2019-03-09T03:13:22.181Z,100442.68
2019-03-09T03:17:42.792Z,100456.19
2019-03-09T03:18:47.436Z,100453.58
2019-03-09T03:20:55.705Z,100457.07
2019-03-09T03:22:00.090Z,100448.42
2019-03-09T03:25:12.121Z,100455.39
2019-03-09T03:26:16.637Z,100457.58
2019-03-09T03:28:24.717Z,100470.22
2019-03-09T03:29:29.448Z,100467.61
2019-03-09T03:30:33.851Z,100474.56
2019-03-09T03:32:42.088Z,100484.56
2019-03-09T03:33:46.781Z,100485.00
2019-03-09T03:35:55.086Z,100485.00
2019-03-09T03:38:03.197Z,100488.05
2019-03-09T03:39:07.703Z,100488.92
2019-03-09T03:40:12.603Z,100485.88
2019-03-09T03:41:17.248Z,100489.81
2019-03-09T03:42:22.678Z,100482.00
2019-03-09T03:44:30.979Z,100484.66
2019-03-09T03:49:49.846Z,100493.36
2019-03-09T03:50:54.243Z,100488.16
2019-03-09T03:57:17.031Z,100487.38
2019-03-09T04:01:32.923Z,100491.77
2019-03-09T04:02:37.342Z,100492.64
2019-03-09T04:03:41.741Z,100486.19
2019-03-09T04:05:50.769Z,100496.61
2019-03-09T04:07:59.195Z,100487.47
2019-03-09T04:10:11.627Z,100488.35
2019-03-09T04:12:20.510Z,100495.77
2019-03-09T04:16:35.784Z,100505.34
2019-03-09T04:17:40.423Z,100505.80
2019-03-09T04:20:52.296Z,100514.11
2019-03-09T04:25:08.519Z,100506.39
2019-03-09T04:29:24.302Z,100512.90
2019-03-09T04:32:35.986Z,100509.86
2019-03-09T04:35:48.235Z,100509.45
2019-03-09T04:37:00.353Z,100512.95
2019-03-09T04:42:20.600Z,100516.91
2019-03-09T04:43:24.987Z,100522.14
2019-03-09T04:44:29.403Z,100515.18
2019-03-09T04:47:41.108Z,100528.66
2019-03-09T04:48:45.505Z,100533.44
2019-03-09T04:50:53.507Z,100531.29
2019-03-09T04:51:58.033Z,100530.41
2019-03-09T04:53:02.430Z,100532.16
2019-03-09T04:54:06.845Z,100525.25
2019-03-09T05:00:29.403Z,100528.75
2019-03-09T05:01:33.820Z,100523.97
2019-03-09T05:08:03.253Z,100540.50
2019-03-09T05:13:44.640Z,100557.50
2019-03-09T05:14:49.057Z,100561.41
2019-03-09T05:16:57.366Z,100556.63
2019-03-09T05:18:01.746Z,100567.06
2019-03-09T05:19:06.124Z,100568.81
2019-03-09T05:22:17.716Z,100558.81
2019-03-09T05:23:22.185Z,100560.55
2019-03-09T05:25:30.185Z,100559.67
2019-03-09T05:26:34.602Z,100560.54
2019-03-09T05:27:39.308Z,100560.50
2019-03-09T05:34:01.857Z,100566.63
2019-03-09T05:36:09.837Z,100569.25
2019-03-09T05:38:17.792Z,100574.47
2019-03-09T05:39:22.276Z,100570.12
2019-03-09T05:40:26.645Z,100584.89
2019-03-09T05:41:31.099Z,100574.91
2019-03-09T05:44:42.660Z,100580.98
2019-03-09T05:45:47.101Z,100580.98
2019-03-09T05:47:55.115Z,100587.50
2019-03-09T05:48:59.499Z,100593.16
2019-03-09T05:52:32.908Z,100598.81
2019-03-09T05:54:40.874Z,100597.52
2019-03-09T05:55:45.410Z,100602.73
2019-03-09T05:56:49.842Z,100614.89
2019-03-09T05:58:57.838Z,100621.85
2019-03-09T06:00:03.573Z,100619.67
2019-03-09T06:02:11.990Z,100622.70
2019-03-09T06:05:36.036Z,100620.97
2019-03-09T06:06:40.411Z,100620.10
2019-03-09T06:07:45.094Z,100620.10
2019-03-09T06:09:53.600Z,100631.41
2019-03-09T06:10:58.016Z,100633.97
2019-03-09T06:14:09.600Z,100647.88
2019-03-09T06:18:24.818Z,100637.06
2019-03-09T06:22:40.070Z,100633.53
2019-03-09T06:24:49.291Z,100634.84
2019-03-09T06:26:57.326Z,100646.13
2019-03-09T06:31:14.222Z,100662.16
2019-03-09T06:40:47.874Z,100660.70
2019-03-09T06:41:56.381Z,100661.12
2019-03-09T06:43:00.772Z,100668.46
2019-03-09T06:44:05.189Z,100663.61
2019-03-09T06:45:11.281Z,100666.22
2019-03-09T06:47:19.332Z,100668.39
2019-03-09T06:49:27.334Z,100673.06
2019-03-09T06:50:31.749Z,100673.02
2019-03-09T06:53:43.580Z,100685.13
2019-03-09T06:56:55.228Z,100691.22
2019-03-09T06:59:03.536Z,100683.86
2019-03-09T07:00:32.290Z,100685.98
2019-03-09T07:01:37.648Z,100687.72
2019-03-09T07:02:42.012Z,100685.10
2019-03-09T07:04:50.982Z,100692.57
2019-03-09T07:05:55.351Z,100696.06
2019-03-09T07:11:15.800Z,100702.06
2019-03-09T07:17:50.604Z,100705.41
2019-03-09T07:24:13.018Z,100723.12
2019-03-09T07:26:21.012Z,100721.73
2019-03-09T07:27:25.417Z,100726.44
2019-03-09T07:30:37.111Z,100728.87
2019-03-09T07:33:51.854Z,100716.33
2019-03-09T07:35:59.819Z,100712.30
2019-03-09T07:38:08.017Z,100716.94
2019-03-09T07:39:12.393Z,100718.66
2019-03-09T07:41:20.501Z,100723.91
2019-03-09T07:43:29.252Z,100738.65
2019-03-09T07:45:37.315Z,100745.15
2019-03-09T07:47:45.312Z,100746.34
2019-03-09T07:49:53.311Z,100751.03
2019-03-09T07:50:58.854Z,100754.11
2019-03-09T07:52:06.357Z,100744.16
2019-03-09T07:53:10.841Z,100741.09
2019-03-09T07:54:15.258Z,100747.22
2019-03-09T07:55:21.760Z,100743.73
2019-03-09T07:58:33.356Z,100745.94
2019-03-09T08:03:54.151Z,100749.22
2019-03-09T08:08:10.433Z,100761.16
2019-03-09T08:10:20.477Z,100759.72
2019-03-09T08:11:25.147Z,100759.18
2019-03-09T08:12:29.506Z,100766.58
2019-03-09T08:13:34.154Z,100767.55
2019-03-09T08:14:38.715Z,100761.52
2019-03-09T08:15:43.079Z,100754.19
2019-03-09T08:17:52.667Z,100754.50
2019-03-09T08:18:57.197Z,100753.05
2019-03-09T08:20:01.912Z,100759.06
2019-03-09T08:21:06.555Z,100754.66
2019-03-09T08:26:28.147Z,100745.86
2019-03-09T08:27:32.885Z,100751.94
2019-03-09T08:34:59.242Z,100753.36
2019-03-09T08:36:03.637Z,100746.56
2019-03-09T08:37:08.271Z,100749.39
2019-03-09T08:41:24.726Z,100752.50
2019-03-09T08:45:40.187Z,100759.56
2019-03-09T08:48:51.792Z,100760.13
2019-03-09T08:49:56.470Z,100760.03
2019-03-09T08:51:00.877Z,100755.95
2019-03-09T08:53:08.923Z,100759.56
2019-03-09T08:54:13.545Z,100752.54
2019-03-09T08:58:28.982Z,100745.14
2019-03-09T08:59:33.365Z,100751.12
2019-03-09T09:00:38.041Z,100754.44
2019-03-09T09:02:46.827Z,100767.62
2019-03-09T09:03:51.457Z,100767.73
2019-03-09T09:07:03.093Z,100762.27
2019-03-09T09:10:14.961Z,100771.55
2019-03-09T09:12:23.262Z,100768.31
2019-03-09T09:14:31.840Z,100759.44
2019-03-09T09:16:39.846Z,100759.50
2019-03-09T09:17:44.355Z,100766.20
2019-03-09T09:20:56.745Z,100762.63
2019-03-09T09:30:31.438Z,100758.70
2019-03-09T09:33:43.041Z,100742.11
2019-03-09T09:35:51.428Z,100757.75
2019-03-09T09:39:06.604Z,100761.03
2019-03-09T09:40:16.559Z,100766.28
2019-03-09T09:41:22.583Z,100762.66
2019-03-09T09:43:30.674Z,100774.40
2019-03-09T09:45:38.640Z,100770.13
2019-03-09T09:47:46.678Z,100759.81
2019-03-09T09:49:54.662Z,100767.33
2019-03-09T09:52:03.232Z,100752.45
2019-03-09T09:53:07.601Z,100751.22
2019-03-09T10:01:38.672Z,100758.95
2019-03-09T10:02:43.013Z,100764.02
2019-03-09T10:03:47.711Z,100762.45
2019-03-09T10:05:55.692Z,100770.85
2019-03-09T10:13:25.255Z,100761.86
2019-03-09T10:14:29.662Z,100766.01
2019-03-09T10:19:49.150Z,100780.16
2019-03-09T10:20:54.153Z,100770.15
2019-03-09T10:21:59.541Z,100769.14
2019-03-09T10:25:11.468Z,100773.09
2019-03-09T10:28:23.127Z,100778.81
2019-03-09T10:30:31.204Z,100782.47
2019-03-09T10:31:35.755Z,100784.69
2019-03-09T10:32:40.728Z,100779.69
2019-03-09T10:36:56.012Z,100776.33
2019-03-09T10:38:00.383Z,100770.68
2019-03-09T10:40:12.144Z,100768.90
2019-03-09T10:42:21.857Z,100764.34
2019-03-09T10:43:26.341Z,100768.89
2019-03-09T10:47:42.163Z,100759.29
2019-03-09T10:49:50.197Z,100755.51
2019-03-09T10:50:54.682Z,100765.27
2019-03-09T10:52:00.529Z,100766.98
2019-03-09T10:54:08.595Z,100758.34
2019-03-09T10:57:38.754Z,100755.42
2019-03-09T11:01:54.695Z,100757.16
2019-03-09T11:02:59.147Z,100750.58
2019-03-09T11:05:10.000Z,100741.55
2019-03-09T11:06:14.389Z,100737.11
2019-03-09T11:07:19.752Z,100737.20
2019-03-09T11:09:28.474Z,100737.87
2019-03-09T11:11:36.572Z,100736.70
2019-03-09T11:13:51.980Z,100729.45
2019-03-09T11:15:55.316Z,100725.69
2019-03-09T11:16:59.687Z,100720.43
2019-03-09T11:20:14.887Z,100718.88
2019-03-09T11:22:22.898Z,100711.29
2019-03-09T11:23:27.533Z,100720.43
2019-03-09T11:27:43.445Z,100711.92
2019-03-09T11:29:51.445Z,100706.48
2019-03-09T11:30:57.061Z,100702.98
2019-03-09T11:32:01.415Z,100704.31
2019-03-09T11:33:05.840Z,100694.19
2019-03-09T11:34:10.465Z,100692.93
2019-03-09T11:39:29.365Z,100690.50
2019-03-09T11:43:45.255Z,100682.81
2019-03-09T11:44:49.686Z,100667.84
2019-03-09T11:50:10.611Z,100655.52
2019-03-09T11:55:29.464Z,100620.76
2019-03-09T11:56:34.819Z,100625.38
2019-03-09T11:57:39.332Z,100620.41
2019-03-09T11:59:47.340Z,100618.79
2019-03-09T12:04:02.736Z,100602.08
2019-03-09T12:11:31.137Z,100570.48
2019-03-09T12:12:35.627Z,100562.88
2019-03-09T12:13:40.032Z,100559.93
2019-03-09T12:14:44.559Z,100551.33
2019-03-09T12:15:50.741Z,100541.80
2019-03-09T12:16:55.147Z,100537.50
2019-03-09T12:19:03.141Z,100542.73
2019-03-09T12:21:12.973Z,100535.89
2019-03-09T12:24:28.296Z,100535.63
2019-03-09T12:25:32.679Z,100538.59
2019-03-09T12:26:37.080Z,100528.35
2019-03-09T12:27:41.485Z,100522.31
2019-03-09T12:28:45.869Z,100506.59
2019-03-09T12:33:01.568Z,100515.24
2019-03-09T12:34:06.093Z,100515.86
2019-03-09T12:41:32.153Z,100511.45
2019-03-09T12:43:41.019Z,100494.75
2019-03-09T12:47:56.230Z,100483.47
2019-03-09T12:52:18.679Z,100473.89
2019-03-09T12:54:26.715Z,100463.13
2019-03-09T12:57:39.388Z,100453.75
2019-03-09T12:58:46.063Z,100460.20
2019-03-09T12:59:50.399Z,100452.11
2019-03-09T13:00:54.791Z,100444.20
2019-03-09T13:04:09.655Z,100455.07
2019-03-09T13:05:16.085Z,100450.72
2019-03-09T13:10:35.553Z,100448.72
2019-03-09T13:14:50.867Z,100429.06
2019-03-09T13:19:06.152Z,100415.59
2019-03-09T13:20:12.512Z,100423.44
2019-03-09T13:22:20.758Z,100426.48
2019-03-09T13:26:36.993Z,100426.94
2019-03-09T13:27:41.414Z,100420.22
2019-03-09T13:28:45.814Z,100419.20
2019-03-09T13:31:58.341Z,100416.27
2019-03-09T13:33:02.760Z,100421.19
2019-03-09T13:36:15.773Z,100414.27
2019-03-09T13:38:23.807Z,100416.13
2019-03-09T13:40:31.884Z,100438.52
2019-03-09T13:44:47.780Z,100413.07
2019-03-09T13:46:55.781Z,100410.94
2019-03-09T13:51:14.049Z,100438.27
2019-03-09T13:53:22.148Z,100446.95
2019-03-09T13:56:33.786Z,100379.16
2019-03-09T13:57:38.245Z,100380.84
2019-03-09T13:58:42.660Z,100365.38
2019-03-09T14:00:50.649Z,100353.04
2019-03-09T14:01:55.061Z,100365.83
2019-03-09T14:05:08.345Z,100361.44
2019-03-09T14:06:12.713Z,100373.97
2019-03-09T14:08:20.750Z,100368.17
2019-03-09T14:09:25.219Z,100367.41
2019-03-09T14:13:41.927Z,100352.74
2019-03-09T14:14:46.333Z,100353.97
2019-03-09T14:15:50.723Z,100356.84
2019-03-09T14:17:58.753Z,100358.95
2019-03-09T14:19:03.793Z,100367.49
2019-03-09T14:23:24.074Z,100403.41
2019-03-09T14:25:32.052Z,100424.91
2019-03-09T14:26:36.444Z,100440.55
2019-03-09T14:29:48.788Z,100464.58
2019-03-09T14:34:05.444Z,100447.37
2019-03-09T14:37:17.379Z,100455.73
2019-03-09T14:38:21.771Z,100453.97
2019-03-09T14:41:33.372Z,100460.13
2019-03-09T14:42:37.779Z,100489.23
2019-03-09T14:44:45.755Z,100474.94
2019-03-09T14:45:50.164Z,100480.79
2019-03-09T14:47:58.201Z,100466.19
2019-03-09T14:50:08.589Z,100485.59
2019-03-09T14:52:16.607Z,100470.69
2019-03-09T14:54:24.684Z,100488.54
2019-03-09T14:58:40.034Z,100496.48
2019-03-09T15:00:48.221Z,100491.97
2019-03-09T15:06:08.226Z,100505.04
2019-03-09T15:09:19.836Z,100509.17
2019-03-09T15:10:24.243Z,100510.70
2019-03-09T15:14:39.556Z,100505.79
2019-03-09T15:15:43.965Z,100502.86
2019-03-09T15:16:48.390Z,100514.98
2019-03-09T15:17:53.017Z,100508.86
2019-03-09T15:21:04.646Z,100521.80
2019-03-09T15:23:12.666Z,100526.39
2019-03-09T15:25:20.753Z,100537.73
2019-03-09T15:27:28.777Z,100542.80
2019-03-09T15:28:33.184Z,100541.67
2019-03-09T15:29:37.580Z,100537.77
2019-03-09T15:30:42.000Z,100553.88
2019-03-09T15:31:46.666Z,100551.77
2019-03-09T15:33:54.719Z,100567.89
2019-03-09T15:35:00.578Z,100577.22
2019-03-09T15:36:06.415Z,100575.35
2019-03-09T15:38:21.439Z,100586.63
2019-03-09T15:41:34.081Z,100598.09
2019-03-09T15:42:38.724Z,100594.63
2019-03-09T15:44:46.749Z,100589.34
2019-03-09T15:46:54.814Z,100600.17
2019-03-09T15:49:02.877Z,100633.22
2019-03-09T15:50:11.033Z,100638.47
2019-03-09T15:53:22.863Z,100666.63
2019-03-09T15:54:27.483Z,100671.52
2019-03-09T15:55:32.655Z,100695.66
2019-03-09T15:56:37.057Z,100678.66
2019-03-09T15:59:48.659Z,100687.52
2019-03-09T16:00:53.093Z,100699.55
2019-03-09T16:04:08.676Z,100724.31
2019-03-09T16:05:13.036Z,100721.34
2019-03-09T16:06:17.490Z,100731.49
2019-03-09T16:07:22.125Z,100725.44
2019-03-09T16:08:26.523Z,100736.02
2019-03-09T16:09:31.279Z,100745.59
2019-03-09T16:10:35.833Z,100750.02
2019-03-09T16:15:55.775Z,100765.03
2019-03-09T16:17:03.321Z,100748.56
2019-03-09T16:18:07.700Z,100779.25
2019-03-09T16:20:21.285Z,100783.39
2019-03-09T16:22:29.327Z,100771.77
2019-03-09T16:23:33.711Z,100783.23
2019-03-09T16:24:38.091Z,100784.17
2019-03-09T16:26:50.282Z,100802.69
2019-03-09T16:27:54.689Z,100798.76
2019-03-09T16:28:59.081Z,100802.69
2019-03-09T16:31:09.447Z,100821.18
2019-03-09T16:32:13.832Z,100814.19
2019-03-09T16:34:22.061Z,100834.81
2019-03-09T16:36:30.356Z,100828.73
2019-03-09T16:37:35.573Z,100831.83
2019-03-09T16:39:44.092Z,100830.63
2019-03-09T16:40:48.529Z,100823.62
2019-03-09T16:41:52.925Z,100836.81
2019-03-09T16:45:05.729Z,100835.80
2019-03-09T16:50:26.873Z,100846.83
2019-03-09T16:52:35.120Z,100852.34
2019-03-09T16:55:46.704Z,100859.75
2019-03-09T16:56:51.144Z,100859.42
2019-03-09T16:57:56.274Z,100859.45
2019-03-09T16:59:01.572Z,100868.24
2019-03-09T17:01:14.652Z,100863.55
2019-03-09T17:02:27.503Z,100860.96
2019-03-09T17:09:47.455Z,100899.50
2019-03-09T17:10:52.080Z,100893.84
2019-03-09T17:13:00.096Z,100900.83
2019-03-09T17:15:18.087Z,100908.78
2019-03-09T17:17:26.195Z,100910.61
2019-03-09T17:18:30.577Z,100906.27
2019-03-09T17:19:34.962Z,100913.28
2019-03-09T17:20:39.638Z,100922.88
2019-03-09T17:22:47.651Z,100928.63
2019-03-09T17:23:52.413Z,100942.59
2019-03-09T17:26:00.399Z,100956.11
2019-03-09T17:27:04.861Z,100963.50
2019-03-09T17:28:09.272Z,100965.26
2019-03-09T17:31:24.728Z,100984.88
2019-03-09T17:32:29.130Z,100980.14
2019-03-09T17:34:37.168Z,100983.25
2019-03-09T17:35:41.559Z,100988.05
2019-03-09T17:36:52.960Z,100983.73
2019-03-09T17:40:07.603Z,100998.55
2019-03-09T17:42:16.563Z,101008.58
2019-03-09T17:43:21.968Z,101004.21
2019-03-09T17:44:26.556Z,101008.57
2019-03-09T17:47:39.092Z,101014.22
2019-03-09T17:49:47.749Z,101019.03
2019-03-09T17:51:55.757Z,101018.59
2019-03-09T17:53:00.813Z,101017.73
2019-03-09T17:54:05.215Z,101014.72
2019-03-09T17:56:14.347Z,101016.45
2019-03-09T17:57:18.780Z,101014.28
2019-03-09T17:58:23.202Z,101014.30
2019-03-09T17:59:27.903Z,101012.60
2019-03-09T18:02:39.794Z,101025.67
2019-03-09T18:03:44.209Z,101029.59
2019-03-09T18:05:52.290Z,101038.40
2019-03-09T18:06:57.739Z,101041.84
2019-03-09T18:08:02.368Z,101046.63
2019-03-09T18:12:24.625Z,101044.02
2019-03-09T18:15:36.990Z,101049.68
2019-03-09T18:19:52.178Z,101061.48
2019-03-09T18:20:56.610Z,101060.61
2019-03-09T18:23:04.590Z,101070.19
2019-03-09T18:26:16.474Z,101068.92
2019-03-09T18:27:20.877Z,101068.92
2019-03-09T18:28:25.277Z,101072.84
2019-03-09T18:29:36.610Z,101080.25
2019-03-09T18:30:40.964Z,101081.55
2019-03-09T18:31:45.329Z,101089.82
2019-03-09T18:32:49.849Z,101089.39
2019-03-09T18:33:55.374Z,101102.88
2019-03-09T18:34:59.728Z,101108.55
2019-03-09T18:36:04.128Z,101111.59
2019-03-09T18:40:19.341Z,101117.28
2019-03-09T18:41:23.967Z,101114.67
2019-03-09T18:42:28.386Z,101112.93
2019-03-09T18:45:40.523Z,101106.87
2019-03-09T18:48:52.124Z,101105.56
2019-03-09T18:52:03.809Z,101114.30
2019-03-09T18:53:08.263Z,101095.14
2019-03-09T18:54:12.866Z,101100.37
2019-03-09T18:55:17.901Z,101100.80
2019-03-09T18:57:26.113Z,101116.03
2019-03-09T19:00:39.641Z,101119.08
2019-03-09T19:01:44.031Z,101116.91
2019-03-09T19:02:48.773Z,101121.69
2019-03-09T19:04:56.766Z,101120.83
2019-03-09T19:10:18.833Z,101117.77
2019-03-09T19:13:31.128Z,101113.03
2019-03-09T19:14:36.143Z,101119.99
2019-03-09T19:15:42.109Z,101112.59
2019-03-09T19:16:47.503Z,101123.48
2019-03-09T19:17:51.896Z,101124.34
2019-03-09T19:19:59.889Z,101122.16
2019-03-09T19:22:07.977Z,101116.52
2019-03-09T19:25:19.610Z,101119.09
2019-03-09T19:29:34.789Z,101126.11
2019-03-09T19:33:50.958Z,101132.63
2019-03-09T19:34:56.493Z,101136.98
2019-03-09T19:38:08.039Z,101153.95
2019-03-09T19:40:18.820Z,101150.46
2019-03-09T19:41:33.541Z,101153.52
2019-03-09T19:42:39.200Z,101147.86
2019-03-09T19:43:43.615Z,101146.14
2019-03-09T19:44:48.029Z,101145.27
2019-03-09T19:45:52.414Z,101150.05
2019-03-09T19:49:05.031Z,101156.58
2019-03-09T19:51:32.073Z,101152.22
2019-03-09T19:52:36.452Z,101147.88
2019-03-09T19:56:52.399Z,101149.59
2019-03-09T19:59:01.113Z,101151.34
2019-03-09T20:00:11.659Z,101155.69
2019-03-09T20:01:16.056Z,101148.30
2019-03-09T20:05:31.465Z,101151.80
2019-03-09T20:06:35.835Z,101145.69
2019-03-09T20:09:47.420Z,101143.97
2019-03-09T20:10:51.815Z,101143.09
2019-03-09T20:15:11.723Z,101150.05
2019-03-09T20:17:19.703Z,101153.97
2019-03-09T20:23:42.297Z,101160.90
2019-03-09T20:24:46.740Z,101154.81
2019-03-09T20:25:51.221Z,101158.76
2019-03-09T20:30:16.769Z,101164.81
2019-03-09T20:31:21.186Z,101172.66
2019-03-09T20:32:25.697Z,101165.69
2019-03-09T20:33:30.109Z,101161.34
2019-03-09T20:34:34.763Z,101163.08
2019-03-09T20:35:39.343Z,101165.27
2019-03-09T20:37:47.353Z,101160.90
2019-03-09T20:38:52.058Z,101170.47
2019-03-09T20:41:00.362Z,101176.56
2019-03-09T20:42:04.874Z,101183.96
2019-03-09T20:44:12.877Z,101174.40
2019-03-09T20:46:25.011Z,101172.66
2019-03-09T20:47:29.561Z,101169.19
2019-03-09T20:48:33.992Z,101170.93
2019-03-09T20:49:38.507Z,101172.66
2019-03-09T20:50:42.872Z,101172.66
2019-03-09T20:52:50.917Z,101176.15
2019-03-09T20:54:58.906Z,101161.36
2019-03-09T20:59:14.109Z,101157.41
2019-03-09T21:00:19.827Z,101155.27
2019-03-09T21:02:28.698Z,101157.88
2019-03-09T21:03:33.172Z,101155.70
2019-03-09T21:04:37.545Z,101155.27
2019-03-09T21:05:42.165Z,101157.88
2019-03-09T21:06:46.590Z,101148.28
2019-03-09T21:08:54.586Z,101165.27
2019-03-09T21:09:59.209Z,101157.88
2019-03-09T21:11:04.442Z,101163.08
2019-03-09T21:14:16.381Z,101169.17
2019-03-09T21:18:31.851Z,101173.55
2019-03-09T21:19:36.219Z,101172.67
2019-03-09T21:21:44.237Z,101173.54
2019-03-09T21:23:52.238Z,101171.38
2019-03-09T21:24:57.254Z,101175.71
2019-03-09T21:26:01.663Z,101183.98
2019-03-09T21:29:13.470Z,101183.11
2019-03-09T21:31:23.627Z,101187.01
2019-03-09T21:33:31.853Z,101191.81
2019-03-09T21:37:48.461Z,101185.70
2019-03-09T21:38:52.949Z,101190.06
2019-03-09T21:41:00.955Z,101192.67
2019-03-09T21:43:08.956Z,101195.27
2019-03-09T21:44:13.353Z,101193.12
2019-03-09T21:48:28.636Z,101197.03
2019-03-09T21:51:40.228Z,101179.61
2019-03-09T21:52:44.628Z,101195.73
2019-03-09T21:53:49.054Z,101190.52
2019-03-09T21:57:00.669Z,101198.33
2019-03-09T21:58:05.148Z,101190.94
2019-03-09T22:00:19.911Z,101195.27
2019-03-09T22:03:31.504Z,101194.42
2019-03-09T22:06:43.080Z,101188.34
2019-03-09T22:07:47.484Z,101184.42
2019-03-09T22:09:55.488Z,101174.41
2019-03-09T22:11:00.628Z,101182.67
2019-03-09T22:13:08.576Z,101181.37
2019-03-09T22:14:12.940Z,101187.45
2019-03-09T22:16:21.770Z,101189.63
2019-03-09T22:17:26.167Z,101182.23
2019-03-09T22:21:41.319Z,101185.27
2019-03-09T22:25:57.219Z,101177.88
2019-03-09T22:27:01.853Z,101179.19
2019-03-09T22:28:06.232Z,101178.31
2019-03-09T22:31:21.860Z,101186.58
2019-03-09T22:32:26.488Z,101182.23
2019-03-09T22:34:34.953Z,101185.70
2019-03-09T22:36:42.915Z,101187.44
2019-03-09T22:37:47.289Z,101185.73
2019-03-09T22:39:55.254Z,101182.66
2019-03-09T22:43:06.874Z,101183.55
2019-03-09T22:49:30.560Z,101183.98
2019-03-09T22:51:38.525Z,101180.93
2019-03-09T22:55:53.739Z,101181.80
2019-03-09T22:59:06.456Z,101169.61
2019-03-09T23:00:20.541Z,101173.95
2019-03-09T23:04:37.423Z,101176.16
2019-03-09T23:08:52.691Z,101174.41
2019-03-09T23:12:05.317Z,101171.80
2019-03-09T23:15:17.600Z,101176.14
2019-03-09T23:17:25.617Z,101173.97
2019-03-09T23:21:40.895Z,101177.44
2019-03-09T23:22:45.317Z,101172.65
2019-03-09T23:24:53.413Z,101179.17
2019-03-09T23:25:57.859Z,101180.50
2019-03-09T23:27:03.188Z,101175.70
2019-03-09T23:29:11.256Z,101170.93
2019-03-09T23:30:20.357Z,101173.98
2019-03-09T23:32:29.192Z,101159.19
2019-03-09T23:35:40.783Z,101168.30
2019-03-09T23:41:00.168Z,101164.39
2019-03-09T23:44:12.879Z,101165.68
2019-03-09T23:45:25.367Z,101161.77
2019-03-09T23:46:29.806Z,101160.47
2019-03-09T23:50:46.209Z,101157.45
2019-03-09T23:56:05.315Z,101151.77
2019-03-09T23:58:13.286Z,101158.30
2019-03-09T23:59:17.688Z,101147.88
